sensor_id;sensor_type;location;lat;lon;timestamp;P1;durP1;ratioP1;P2;durP2;ratioP2
67195;SDS011;54122;53.538;49.366;2022-08-01T00:01:12;8.10;;;4.65;;
67195;SDS011;54122;53.538;49.366;2022-08-01T00:03:39;9.45;;;5.32;;
67195;SDS011;54122;53.538;49.366;2022-08-01T00:06:05;12.25;;;5.00;;
67195;SDS011;54122;53.538;49.366;2022-08-01T00:08:32;6.72;;;5.05;;
67195;SDS011;54122;53.538;49.366;2022-08-01T00:10:58;8.20;;;4.85;;
67195;SDS011;54122;53.538;49.366;2022-08-01T00:13:24;8.38;;;4.72;;
67195;SDS011;54122;53.538;49.366;2022-08-01T00:15:50;15.82;;;4.72;;
67195;SDS011;54122;53.538;49.366;2022-08-01T00:18:17;7.82;;;4.85;;
67195;SDS011;54122;53.538;49.366;2022-08-01T00:20:43;8.13;;;4.80;;
67195;SDS011;54122;53.538;49.366;2022-08-01T00:23:09;10.30;;;4.75;;
67195;SDS011;54122;53.538;49.366;2022-08-01T00:25:35;7.78;;;4.57;;
67195;SDS011;54122;53.538;49.366;2022-08-01T00:28:02;8.25;;;4.28;;
67195;SDS011;54122;53.538;49.366;2022-08-01T00:30:28;9.15;;;4.50;;
67195;SDS011;54122;53.538;49.366;2022-08-01T00:32:54;9.52;;;4.00;;
67195;SDS011;54122;53.538;49.366;2022-08-01T00:35:20;8.30;;;4.65;;
67195;SDS011;54122;53.538;49.366;2022-08-01T00:37:47;12.93;;;4.70;;
67195;SDS011;54122;53.538;49.366;2022-08-01T00:40:13;7.30;;;4.82;;
67195;SDS011;54122;53.538;49.366;2022-08-01T00:42:39;11.80;;;4.75;;
67195;SDS011;54122;53.538;49.366;2022-08-01T00:45:07;12.25;;;5.10;;
67195;SDS011;54122;53.538;49.366;2022-08-01T00:47:33;15.10;;;5.53;;
67195;SDS011;54122;53.538;49.366;2022-08-01T00:50:00;11.35;;;5.75;;
67195;SDS011;54122;53.538;49.366;2022-08-01T00:52:28;9.40;;;6.32;;
67195;SDS011;54122;53.538;49.366;2022-08-01T00:54:54;11.88;;;5.65;;
67195;SDS011;54122;53.538;49.366;2022-08-01T00:57:21;15.32;;;5.97;;
67195;SDS011;54122;53.538;49.366;2022-08-01T00:59:47;13.38;;;6.13;;
67195;SDS011;54122;53.538;49.366;2022-08-01T01:02:13;11.25;;;6.05;;
67195;SDS011;54122;53.538;49.366;2022-08-01T01:04:40;12.13;;;6.18;;
67195;SDS011;54122;53.538;49.366;2022-08-01T01:07:09;13.05;;;6.07;;
67195;SDS011;54122;53.538;49.366;2022-08-01T01:10:04;14.05;;;6.88;;
67195;SDS011;54122;53.538;49.366;2022-08-01T01:18:00;15.27;;;7.60;;
67195;SDS011;54122;53.538;49.366;2022-08-01T01:20:48;18.08;;;7.78;;
67195;SDS011;54122;53.538;49.366;2022-08-01T01:34:43;9.98;;;6.43;;
67195;SDS011;54122;53.538;49.366;2022-08-01T01:37:14;14.38;;;6.15;;
67195;SDS011;54122;53.538;49.366;2022-08-01T01:39:43;15.50;;;6.00;;
67195;SDS011;54122;53.538;49.366;2022-08-01T01:42:13;14.85;;;6.20;;
67195;SDS011;54122;53.538;49.366;2022-08-01T01:44:41;13.88;;;5.85;;
67195;SDS011;54122;53.538;49.366;2022-08-01T01:47:11;7.03;;;4.97;;
67195;SDS011;54122;53.538;49.366;2022-08-01T01:49:41;11.32;;;4.97;;
67195;SDS011;54122;53.538;49.366;2022-08-01T01:52:10;13.65;;;5.78;;
67195;SDS011;54122;53.538;49.366;2022-08-01T01:54:49;11.00;;;5.28;;
67195;SDS011;54122;53.538;49.366;2022-08-01T01:57:17;14.30;;;5.40;;
67195;SDS011;54122;53.538;49.366;2022-08-01T01:59:45;17.35;;;5.43;;
67195;SDS011;54122;53.538;49.366;2022-08-01T02:02:13;15.52;;;6.15;;
67195;SDS011;54122;53.538;49.366;2022-08-01T02:04:42;12.43;;;5.53;;
67195;SDS011;54122;53.538;49.366;2022-08-01T02:07:13;14.18;;;5.75;;
67195;SDS011;54122;53.538;49.366;2022-08-01T02:09:43;14.07;;;5.35;;
67195;SDS011;54122;53.538;49.366;2022-08-01T02:12:11;13.38;;;4.97;;
67195;SDS011;54122;53.538;49.366;2022-08-01T02:14:40;14.48;;;3.90;;
67195;SDS011;54122;53.538;49.366;2022-08-01T02:17:11;11.35;;;3.88;;
67195;SDS011;54122;53.538;49.366;2022-08-01T02:19:40;7.85;;;3.80;;
67195;SDS011;54122;53.538;49.366;2022-08-01T02:24:37;14.57;;;4.35;;
67195;SDS011;54122;53.538;49.366;2022-08-01T02:27:09;12.73;;;3.72;;
67195;SDS011;54122;53.538;49.366;2022-08-01T02:30:03;8.68;;;4.03;;
67195;SDS011;54122;53.538;49.366;2022-08-01T02:32:33;9.00;;;3.88;;
67195;SDS011;54122;53.538;49.366;2022-08-01T02:35:04;7.18;;;4.15;;
67195;SDS011;54122;53.538;49.366;2022-08-01T02:37:36;15.23;;;4.30;;
67195;SDS011;54122;53.538;49.366;2022-08-01T02:40:05;13.95;;;4.47;;
67195;SDS011;54122;53.538;49.366;2022-08-01T02:42:33;14.30;;;4.68;;
67195;SDS011;54122;53.538;49.366;2022-08-01T02:45:03;11.88;;;4.38;;
67195;SDS011;54122;53.538;49.366;2022-08-01T02:47:33;16.98;;;4.60;;
67195;SDS011;54122;53.538;49.366;2022-08-01T02:50:03;12.23;;;4.53;;
67195;SDS011;54122;53.538;49.366;2022-08-01T02:52:30;13.52;;;4.70;;
67195;SDS011;54122;53.538;49.366;2022-08-01T02:54:58;12.38;;;4.70;;
67195;SDS011;54122;53.538;49.366;2022-08-01T02:57:25;12.70;;;4.70;;
67195;SDS011;54122;53.538;49.366;2022-08-01T02:59:53;15.60;;;5.10;;
67195;SDS011;54122;53.538;49.366;2022-08-01T03:02:21;10.48;;;5.13;;
67195;SDS011;54122;53.538;49.366;2022-08-01T03:04:49;16.40;;;5.10;;
67195;SDS011;54122;53.538;49.366;2022-08-01T03:07:18;15.75;;;4.57;;
67195;SDS011;54122;53.538;49.366;2022-08-01T03:09:45;16.90;;;5.22;;
67195;SDS011;54122;53.538;49.366;2022-08-01T03:12:14;23.60;;;4.63;;
67195;SDS011;54122;53.538;49.366;2022-08-01T03:14:44;14.50;;;4.60;;
67195;SDS011;54122;53.538;49.366;2022-08-01T03:17:13;19.02;;;4.82;;
67195;SDS011;54122;53.538;49.366;2022-08-01T03:19:41;8.02;;;4.43;;
67195;SDS011;54122;53.538;49.366;2022-08-01T03:22:12;7.88;;;4.32;;
67195;SDS011;54122;53.538;49.366;2022-08-01T03:24:41;11.68;;;4.72;;
67195;SDS011;54122;53.538;49.366;2022-08-01T03:27:09;16.60;;;4.40;;
67195;SDS011;54122;53.538;49.366;2022-08-01T03:29:39;11.55;;;4.22;;
67195;SDS011;54122;53.538;49.366;2022-08-01T03:32:08;8.88;;;4.07;;
67195;SDS011;54122;53.538;49.366;2022-08-01T03:34:36;11.15;;;4.28;;
67195;SDS011;54122;53.538;49.366;2022-08-01T03:37:14;15.77;;;4.40;;
67195;SDS011;54122;53.538;49.366;2022-08-01T03:39:58;9.85;;;4.35;;
67195;SDS011;54122;53.538;49.366;2022-08-01T03:42:42;7.68;;;4.35;;
67195;SDS011;54122;53.538;49.366;2022-08-01T03:45:11;10.20;;;4.72;;
67195;SDS011;54122;53.538;49.366;2022-08-01T03:47:46;7.65;;;4.45;;
67195;SDS011;54122;53.538;49.366;2022-08-01T03:50:14;10.85;;;4.60;;
67195;SDS011;54122;53.538;49.366;2022-08-01T03:52:43;11.05;;;5.53;;
67195;SDS011;54122;53.538;49.366;2022-08-01T03:55:12;15.23;;;5.85;;
67195;SDS011;54122;53.538;49.366;2022-08-01T03:57:42;11.50;;;5.65;;
67195;SDS011;54122;53.538;49.366;2022-08-01T04:00:11;9.73;;;5.15;;
67195;SDS011;54122;53.538;49.366;2022-08-01T04:02:38;9.73;;;5.40;;
67195;SDS011;54122;53.538;49.366;2022-08-01T04:05:05;10.35;;;5.57;;
67195;SDS011;54122;53.538;49.366;2022-08-01T04:07:32;26.25;;;5.05;;
67195;SDS011;54122;53.538;49.366;2022-08-01T04:10:03;12.25;;;5.32;;
67195;SDS011;54122;53.538;49.366;2022-08-01T04:12:30;13.23;;;5.28;;
67195;SDS011;54122;53.538;49.366;2022-08-01T04:14:56;15.48;;;5.43;;
67195;SDS011;54122;53.538;49.366;2022-08-01T04:17:22;20.38;;;4.50;;
67195;SDS011;54122;53.538;49.366;2022-08-01T04:19:48;11.05;;;3.90;;
67195;SDS011;54122;53.538;49.366;2022-08-01T04:22:15;12.70;;;4.30;;
67195;SDS011;54122;53.538;49.366;2022-08-01T04:24:42;8.85;;;3.85;;
67195;SDS011;54122;53.538;49.366;2022-08-01T04:27:17;8.73;;;4.00;;
67195;SDS011;54122;53.538;49.366;2022-08-01T04:29:49;7.68;;;4.00;;
67195;SDS011;54122;53.538;49.366;2022-08-01T04:32:18;9.57;;;4.10;;
67195;SDS011;54122;53.538;49.366;2022-08-01T04:34:47;6.95;;;4.00;;
67195;SDS011;54122;53.538;49.366;2022-08-01T04:37:15;9.93;;;3.88;;
67195;SDS011;54122;53.538;49.366;2022-08-01T04:39:43;9.40;;;3.97;;
67195;SDS011;54122;53.538;49.366;2022-08-01T04:42:11;15.57;;;4.30;;
67195;SDS011;54122;53.538;49.366;2022-08-01T04:44:39;26.30;;;4.78;;
67195;SDS011;54122;53.538;49.366;2022-08-01T04:47:06;10.40;;;3.83;;
67195;SDS011;54122;53.538;49.366;2022-08-01T04:49:34;8.43;;;3.88;;
67195;SDS011;54122;53.538;49.366;2022-08-01T04:52:01;5.82;;;3.78;;
67195;SDS011;54122;53.538;49.366;2022-08-01T04:54:28;8.32;;;4.25;;
67195;SDS011;54122;53.538;49.366;2022-08-01T04:56:55;11.38;;;4.18;;
67195;SDS011;54122;53.538;49.366;2022-08-01T04:59:28;6.00;;;4.05;;
67195;SDS011;54122;53.538;49.366;2022-08-01T05:02:12;8.63;;;3.95;;
67195;SDS011;54122;53.538;49.366;2022-08-01T05:04:41;8.18;;;4.38;;
67195;SDS011;54122;53.538;49.366;2022-08-01T05:07:08;11.15;;;4.18;;
67195;SDS011;54122;53.538;49.366;2022-08-01T05:09:34;11.30;;;4.80;;
67195;SDS011;54122;53.538;49.366;2022-08-01T05:12:02;9.75;;;4.95;;
67195;SDS011;54122;53.538;49.366;2022-08-01T05:14:30;13.70;;;4.78;;
67195;SDS011;54122;53.538;49.366;2022-08-01T05:16:59;8.95;;;5.18;;
67195;SDS011;54122;53.538;49.366;2022-08-01T05:19:29;10.73;;;4.80;;
67195;SDS011;54122;53.538;49.366;2022-08-01T05:21:57;18.42;;;5.18;;
67195;SDS011;54122;53.538;49.366;2022-08-01T05:24:29;26.15;;;5.80;;
67195;SDS011;54122;53.538;49.366;2022-08-01T05:26:56;7.78;;;4.78;;
67195;SDS011;54122;53.538;49.366;2022-08-01T05:29:23;26.83;;;8.88;;
67195;SDS011;54122;53.538;49.366;2022-08-01T05:31:50;18.83;;;5.60;;
67195;SDS011;54122;53.538;49.366;2022-08-01T05:34:17;8.00;;;4.88;;
67195;SDS011;54122;53.538;49.366;2022-08-01T05:36:44;12.45;;;4.85;;
67195;SDS011;54122;53.538;49.366;2022-08-01T05:39:11;11.18;;;5.40;;
67195;SDS011;54122;53.538;49.366;2022-08-01T05:41:38;7.65;;;4.82;;
67195;SDS011;54122;53.538;49.366;2022-08-01T05:44:05;18.45;;;5.45;;
67195;SDS011;54122;53.538;49.366;2022-08-01T05:46:32;9.73;;;5.13;;
67195;SDS011;54122;53.538;49.366;2022-08-01T05:49:02;20.25;;;6.00;;
67195;SDS011;54122;53.538;49.366;2022-08-01T05:51:29;14.98;;;5.32;;
67195;SDS011;54122;53.538;49.366;2022-08-01T05:53:57;10.85;;;5.40;;
67195;SDS011;54122;53.538;49.366;2022-08-01T05:56:23;13.30;;;5.03;;
67195;SDS011;54122;53.538;49.366;2022-08-01T05:58:50;17.17;;;5.18;;
67195;SDS011;54122;53.538;49.366;2022-08-01T06:01:17;12.15;;;5.80;;
67195;SDS011;54122;53.538;49.366;2022-08-01T06:03:44;15.02;;;5.40;;
67195;SDS011;54122;53.538;49.366;2022-08-01T06:06:10;12.77;;;4.85;;
67195;SDS011;54122;53.538;49.366;2022-08-01T06:08:37;13.02;;;5.75;;
67195;SDS011;54122;53.538;49.366;2022-08-01T06:11:04;18.48;;;5.38;;
67195;SDS011;54122;53.538;49.366;2022-08-01T06:13:31;10.02;;;5.40;;
67195;SDS011;54122;53.538;49.366;2022-08-01T06:15:57;10.95;;;5.70;;
67195;SDS011;54122;53.538;49.366;2022-08-01T06:18:24;8.68;;;5.82;;
67195;SDS011;54122;53.538;49.366;2022-08-01T06:20:50;18.83;;;5.65;;
67195;SDS011;54122;53.538;49.366;2022-08-01T06:23:16;12.48;;;5.90;;
67195;SDS011;54122;53.538;49.366;2022-08-01T06:25:43;16.40;;;5.90;;
67195;SDS011;54122;53.538;49.366;2022-08-01T06:28:09;16.90;;;5.63;;
67195;SDS011;54122;53.538;49.366;2022-08-01T06:30:36;12.88;;;6.70;;
67195;SDS011;54122;53.538;49.366;2022-08-01T06:33:02;11.85;;;6.65;;
67195;SDS011;54122;53.538;49.366;2022-08-01T06:35:28;12.98;;;6.55;;
67195;SDS011;54122;53.538;49.366;2022-08-01T07:40:43;15.50;;;7.40;;
67195;SDS011;54122;53.538;49.366;2022-08-01T07:46:53;14.70;;;6.93;;
67195;SDS011;54122;53.538;49.366;2022-08-01T07:49:21;11.27;;;6.30;;
67195;SDS011;54122;53.538;49.366;2022-08-01T07:51:47;12.07;;;7.25;;
67195;SDS011;54122;53.538;49.366;2022-08-01T07:54:15;11.48;;;7.22;;
67195;SDS011;54122;53.538;49.366;2022-08-01T07:56:41;13.98;;;7.32;;
67195;SDS011;54122;53.538;49.366;2022-08-01T07:59:07;16.23;;;7.32;;
67195;SDS011;54122;53.538;49.366;2022-08-01T08:01:33;19.55;;;7.43;;
67195;SDS011;54122;53.538;49.366;2022-08-01T08:03:59;17.30;;;7.03;;
67195;SDS011;54122;53.538;49.366;2022-08-01T08:06:26;22.52;;;7.63;;
67195;SDS011;54122;53.538;49.366;2022-08-01T08:08:52;12.02;;;7.18;;
67195;SDS011;54122;53.538;49.366;2022-08-01T08:11:20;13.68;;;7.80;;
67195;SDS011;54122;53.538;49.366;2022-08-01T08:13:48;22.95;;;7.72;;
67195;SDS011;54122;53.538;49.366;2022-08-01T08:16:14;16.95;;;7.75;;
67195;SDS011;54122;53.538;49.366;2022-08-01T08:18:40;15.50;;;7.55;;
67195;SDS011;54122;53.538;49.366;2022-08-01T08:21:07;15.75;;;7.22;;
67195;SDS011;54122;53.538;49.366;2022-08-01T08:23:33;14.98;;;6.47;;
67195;SDS011;54122;53.538;49.366;2022-08-01T08:26:17;18.35;;;7.28;;
67195;SDS011;54122;53.538;49.366;2022-08-01T08:28:44;12.90;;;5.80;;
67195;SDS011;54122;53.538;49.366;2022-08-01T08:31:10;12.90;;;6.18;;
67195;SDS011;54122;53.538;49.366;2022-08-01T08:33:36;19.25;;;7.18;;
67195;SDS011;54122;53.538;49.366;2022-08-01T08:36:02;15.73;;;8.13;;
67195;SDS011;54122;53.538;49.366;2022-08-01T08:38:29;21.77;;;8.30;;
67195;SDS011;54122;53.538;49.366;2022-08-01T08:40:55;19.00;;;8.38;;
67195;SDS011;54122;53.538;49.366;2022-08-01T08:43:22;19.52;;;8.18;;
67195;SDS011;54122;53.538;49.366;2022-08-01T08:45:50;22.92;;;8.60;;
67195;SDS011;54122;53.538;49.366;2022-08-01T08:48:17;18.70;;;8.20;;
67195;SDS011;54122;53.538;49.366;2022-08-01T08:50:45;14.35;;;7.20;;
67195;SDS011;54122;53.538;49.366;2022-08-01T08:53:12;51.85;;;9.15;;
67195;SDS011;54122;53.538;49.366;2022-08-01T08:55:41;14.10;;;7.20;;
67195;SDS011;54122;53.538;49.366;2022-08-01T08:58:12;17.60;;;7.60;;
67195;SDS011;54122;53.538;49.366;2022-08-01T09:00:40;15.43;;;7.95;;
67195;SDS011;54122;53.538;49.366;2022-08-01T09:03:07;34.97;;;7.97;;
67195;SDS011;54122;53.538;49.366;2022-08-01T09:05:33;21.45;;;7.80;;
67195;SDS011;54122;53.538;49.366;2022-08-01T09:07:59;15.75;;;7.97;;
67195;SDS011;54122;53.538;49.366;2022-08-01T09:10:27;18.88;;;7.82;;
67195;SDS011;54122;53.538;49.366;2022-08-01T09:13:12;17.45;;;7.22;;
67195;SDS011;54122;53.538;49.366;2022-08-01T09:15:43;13.15;;;7.75;;
67195;SDS011;54122;53.538;49.366;2022-08-01T09:23:41;11.88;;;6.80;;
67195;SDS011;54122;53.538;49.366;2022-08-01T09:26:09;13.68;;;7.43;;
67195;SDS011;54122;53.538;49.366;2022-08-01T09:28:39;12.60;;;6.70;;
67195;SDS011;54122;53.538;49.366;2022-08-01T09:31:06;16.25;;;6.90;;
67195;SDS011;54122;53.538;49.366;2022-08-01T09:33:58;18.75;;;6.20;;
67195;SDS011;54122;53.538;49.366;2022-08-01T09:39:25;15.27;;;5.95;;
67195;SDS011;54122;53.538;49.366;2022-08-01T09:41:58;29.65;;;6.88;;
67195;SDS011;54122;53.538;49.366;2022-08-01T09:44:36;16.15;;;6.63;;
67195;SDS011;54122;53.538;49.366;2022-08-01T09:47:04;15.13;;;6.28;;
67195;SDS011;54122;53.538;49.366;2022-08-01T09:49:35;13.23;;;6.50;;
67195;SDS011;54122;53.538;49.366;2022-08-01T09:52:15;13.52;;;6.60;;
67195;SDS011;54122;53.538;49.366;2022-08-01T09:54:43;13.77;;;6.60;;
67195;SDS011;54122;53.538;49.366;2022-08-01T09:57:27;11.90;;;6.25;;
67195;SDS011;54122;53.538;49.366;2022-08-01T09:59:55;15.73;;;7.60;;
67195;SDS011;54122;53.538;49.366;2022-08-01T10:02:33;15.95;;;7.05;;
67195;SDS011;54122;53.538;49.366;2022-08-01T10:05:01;14.35;;;7.07;;
67195;SDS011;54122;53.538;49.366;2022-08-01T10:07:30;16.63;;;6.75;;
67195;SDS011;54122;53.538;49.366;2022-08-01T10:10:08;12.93;;;7.13;;
67195;SDS011;54122;53.538;49.366;2022-08-01T10:12:38;14.57;;;7.20;;
67195;SDS011;54122;53.538;49.366;2022-08-01T10:15:06;17.55;;;8.90;;
67195;SDS011;54122;53.538;49.366;2022-08-01T10:17:33;14.68;;;7.32;;
67195;SDS011;54122;53.538;49.366;2022-08-01T10:20:04;17.70;;;6.88;;
67195;SDS011;54122;53.538;49.366;2022-08-01T10:22:32;13.60;;;6.78;;
67195;SDS011;54122;53.538;49.366;2022-08-01T10:25:02;21.23;;;7.10;;
67195;SDS011;54122;53.538;49.366;2022-08-01T10:27:29;25.33;;;7.03;;
67195;SDS011;54122;53.538;49.366;2022-08-01T10:30:00;24.38;;;7.53;;
67195;SDS011;54122;53.538;49.366;2022-08-01T10:32:33;17.00;;;7.18;;
67195;SDS011;54122;53.538;49.366;2022-08-01T10:35:01;17.40;;;6.80;;
67195;SDS011;54122;53.538;49.366;2022-08-01T10:37:30;19.75;;;6.93;;
67195;SDS011;54122;53.538;49.366;2022-08-01T10:39:57;14.13;;;6.68;;
67195;SDS011;54122;53.538;49.366;2022-08-01T10:42:24;15.30;;;5.93;;
67195;SDS011;54122;53.538;49.366;2022-08-01T10:44:50;14.95;;;5.80;;
67195;SDS011;54122;53.538;49.366;2022-08-01T10:47:18;13.20;;;5.95;;
67195;SDS011;54122;53.538;49.366;2022-08-01T10:52:29;9.60;;;5.78;;
67195;SDS011;54122;53.538;49.366;2022-08-01T10:55:06;15.82;;;5.88;;
67195;SDS011;54122;53.538;49.366;2022-08-01T10:57:46;29.00;;;7.88;;
67195;SDS011;54122;53.538;49.366;2022-08-01T11:00:16;15.65;;;6.43;;
67195;SDS011;54122;53.538;49.366;2022-08-01T11:02:56;16.13;;;6.32;;
67195;SDS011;54122;53.538;49.366;2022-08-01T11:05:26;20.42;;;6.43;;
67195;SDS011;54122;53.538;49.366;2022-08-01T11:07:54;8.80;;;5.63;;
67195;SDS011;54122;53.538;49.366;2022-08-01T11:13:09;7.97;;;5.68;;
67195;SDS011;54122;53.538;49.366;2022-08-01T11:15:40;12.38;;;6.60;;
67195;SDS011;54122;53.538;49.366;2022-08-01T11:21:15;12.57;;;5.72;;
67195;SDS011;54122;53.538;49.366;2022-08-01T11:23:49;15.52;;;6.82;;
67195;SDS011;54122;53.538;49.366;2022-08-01T11:26:19;18.42;;;6.57;;
67195;SDS011;54122;53.538;49.366;2022-08-01T11:29:10;15.10;;;6.20;;
67195;SDS011;54122;53.538;49.366;2022-08-01T11:31:38;14.70;;;6.43;;
67195;SDS011;54122;53.538;49.366;2022-08-01T11:34:04;13.07;;;6.05;;
67195;SDS011;54122;53.538;49.366;2022-08-01T11:36:31;12.70;;;5.63;;
67195;SDS011;54122;53.538;49.366;2022-08-01T11:41:24;38.65;;;7.10;;
67195;SDS011;54122;53.538;49.366;2022-08-01T11:43:57;15.35;;;5.60;;
67195;SDS011;54122;53.538;49.366;2022-08-01T11:46:45;12.73;;;6.03;;
67195;SDS011;54122;53.538;49.366;2022-08-01T11:52:17;13.10;;;5.78;;
67195;SDS011;54122;53.538;49.366;2022-08-01T11:59:57;10.02;;;5.13;;
67195;SDS011;54122;53.538;49.366;2022-08-01T12:02:28;9.23;;;5.32;;
67195;SDS011;54122;53.538;49.366;2022-08-01T12:07:23;19.60;;;5.10;;
67195;SDS011;54122;53.538;49.366;2022-08-01T12:09:58;28.30;;;5.45;;
67195;SDS011;54122;53.538;49.366;2022-08-01T12:12:26;7.32;;;4.90;;
67195;SDS011;54122;53.538;49.366;2022-08-01T12:14:54;15.10;;;4.80;;
67195;SDS011;54122;53.538;49.366;2022-08-01T12:17:34;7.50;;;4.47;;
67195;SDS011;54122;53.538;49.366;2022-08-01T12:20:06;15.70;;;4.88;;
67195;SDS011;54122;53.538;49.366;2022-08-01T12:22:34;15.07;;;4.82;;
67195;SDS011;54122;53.538;49.366;2022-08-01T12:25:04;11.40;;;4.72;;
67195;SDS011;54122;53.538;49.366;2022-08-01T12:27:32;10.07;;;4.25;;
67195;SDS011;54122;53.538;49.366;2022-08-01T12:29:59;26.55;;;4.25;;
67195;SDS011;54122;53.538;49.366;2022-08-01T12:32:30;22.42;;;4.43;;
67195;SDS011;54122;53.538;49.366;2022-08-01T12:35:02;17.60;;;4.00;;
67195;SDS011;54122;53.538;49.366;2022-08-01T12:37:36;13.75;;;4.10;;
67195;SDS011;54122;53.538;49.366;2022-08-01T12:40:11;9.02;;;3.28;;
67195;SDS011;54122;53.538;49.366;2022-08-01T12:42:49;12.85;;;4.13;;
67195;SDS011;54122;53.538;49.366;2022-08-01T12:45:21;9.45;;;4.05;;
67195;SDS011;54122;53.538;49.366;2022-08-01T12:47:54;13.63;;;4.28;;
67195;SDS011;54122;53.538;49.366;2022-08-01T12:50:21;10.57;;;4.05;;
67195;SDS011;54122;53.538;49.366;2022-08-01T12:52:49;9.52;;;3.97;;
67195;SDS011;54122;53.538;49.366;2022-08-01T12:55:17;10.30;;;3.50;;
67195;SDS011;54122;53.538;49.366;2022-08-01T12:57:48;17.13;;;4.05;;
67195;SDS011;54122;53.538;49.366;2022-08-01T13:00:17;10.95;;;3.63;;
67195;SDS011;54122;53.538;49.366;2022-08-01T13:02:46;9.18;;;3.47;;
67195;SDS011;54122;53.538;49.366;2022-08-01T13:05:14;13.65;;;4.07;;
67195;SDS011;54122;53.538;49.366;2022-08-01T13:07:48;7.20;;;3.40;;
67195;SDS011;54122;53.538;49.366;2022-08-01T13:10:24;5.65;;;3.35;;
67195;SDS011;54122;53.538;49.366;2022-08-01T13:12:56;12.10;;;3.22;;
67195;SDS011;54122;53.538;49.366;2022-08-01T13:15:30;6.90;;;3.13;;
67195;SDS011;54122;53.538;49.366;2022-08-01T13:17:59;15.52;;;3.20;;
67195;SDS011;54122;53.538;49.366;2022-08-01T13:20:28;11.18;;;3.38;;
67195;SDS011;54122;53.538;49.366;2022-08-01T13:23:09;10.23;;;3.08;;
67195;SDS011;54122;53.538;49.366;2022-08-01T13:25:50;19.08;;;3.03;;
67195;SDS011;54122;53.538;49.366;2022-08-01T13:28:21;11.45;;;3.10;;
67195;SDS011;54122;53.538;49.366;2022-08-01T13:33:23;13.77;;;3.10;;
67195;SDS011;54122;53.538;49.366;2022-08-01T13:35:51;11.60;;;3.42;;
67195;SDS011;54122;53.538;49.366;2022-08-01T13:38:21;12.65;;;3.08;;
67195;SDS011;54122;53.538;49.366;2022-08-01T13:41:06;10.95;;;3.38;;
67195;SDS011;54122;53.538;49.366;2022-08-01T13:43:33;10.80;;;3.15;;
67195;SDS011;54122;53.538;49.366;2022-08-01T13:46:00;6.63;;;2.97;;
67195;SDS011;54122;53.538;49.366;2022-08-01T13:48:30;8.70;;;3.00;;
67195;SDS011;54122;53.538;49.366;2022-08-01T13:50:57;8.05;;;3.30;;
67195;SDS011;54122;53.538;49.366;2022-08-01T13:53:24;11.80;;;2.80;;
67195;SDS011;54122;53.538;49.366;2022-08-01T13:55:50;11.70;;;2.63;;
67195;SDS011;54122;53.538;49.366;2022-08-01T13:58:16;9.93;;;2.92;;
67195;SDS011;54122;53.538;49.366;2022-08-01T14:00:42;5.47;;;2.70;;
67195;SDS011;54122;53.538;49.366;2022-08-01T14:03:09;8.07;;;3.13;;
67195;SDS011;54122;53.538;49.366;2022-08-01T14:05:36;7.32;;;2.47;;
67195;SDS011;54122;53.538;49.366;2022-08-01T14:08:02;6.47;;;2.53;;
67195;SDS011;54122;53.538;49.366;2022-08-01T14:10:29;9.25;;;2.75;;
67195;SDS011;54122;53.538;49.366;2022-08-01T14:12:55;7.55;;;3.00;;
67195;SDS011;54122;53.538;49.366;2022-08-01T14:15:23;11.65;;;3.10;;
67195;SDS011;54122;53.538;49.366;2022-08-01T14:17:50;4.47;;;2.72;;
67195;SDS011;54122;53.538;49.366;2022-08-01T14:20:16;10.90;;;2.63;;
67195;SDS011;54122;53.538;49.366;2022-08-01T14:22:45;17.35;;;2.47;;
67195;SDS011;54122;53.538;49.366;2022-08-01T14:25:11;18.52;;;3.13;;
67195;SDS011;54122;53.538;49.366;2022-08-01T14:27:38;14.30;;;2.60;;
67195;SDS011;54122;53.538;49.366;2022-08-01T14:30:09;5.63;;;2.58;;
67195;SDS011;54122;53.538;49.366;2022-08-01T14:32:36;18.52;;;3.05;;
67195;SDS011;54122;53.538;49.366;2022-08-01T14:35:03;10.10;;;2.35;;
67195;SDS011;54122;53.538;49.366;2022-08-01T14:37:31;9.98;;;2.63;;
67195;SDS011;54122;53.538;49.366;2022-08-01T14:39:58;12.55;;;3.00;;
67195;SDS011;54122;53.538;49.366;2022-08-01T14:42:25;11.32;;;2.42;;
67195;SDS011;54122;53.538;49.366;2022-08-01T14:44:51;10.30;;;2.60;;
67195;SDS011;54122;53.538;49.366;2022-08-01T14:47:18;9.95;;;2.83;;
67195;SDS011;54122;53.538;49.366;2022-08-01T14:49:45;9.45;;;2.28;;
67195;SDS011;54122;53.538;49.366;2022-08-01T14:52:11;10.82;;;2.70;;
67195;SDS011;54122;53.538;49.366;2022-08-01T14:54:37;7.50;;;2.22;;
67195;SDS011;54122;53.538;49.366;2022-08-01T14:57:04;18.55;;;2.88;;
67195;SDS011;54122;53.538;49.366;2022-08-01T14:59:30;8.57;;;2.58;;
67195;SDS011;54122;53.538;49.366;2022-08-01T15:01:56;14.90;;;2.55;;
67195;SDS011;54122;53.538;49.366;2022-08-01T15:04:22;4.47;;;2.50;;
67195;SDS011;54122;53.538;49.366;2022-08-01T15:06:48;6.22;;;2.55;;
67195;SDS011;54122;53.538;49.366;2022-08-01T15:09:15;6.43;;;1.92;;
67195;SDS011;54122;53.538;49.366;2022-08-01T15:11:41;7.03;;;2.40;;
67195;SDS011;54122;53.538;49.366;2022-08-01T15:14:07;10.02;;;2.33;;
67195;SDS011;54122;53.538;49.366;2022-08-01T15:16:52;5.30;;;2.20;;
67195;SDS011;54122;53.538;49.366;2022-08-01T15:19:18;10.10;;;2.58;;
67195;SDS011;54122;53.538;49.366;2022-08-01T15:21:44;7.00;;;2.28;;
67195;SDS011;54122;53.538;49.366;2022-08-01T15:24:11;11.00;;;2.35;;
67195;SDS011;54122;53.538;49.366;2022-08-01T15:26:37;8.95;;;2.40;;
67195;SDS011;54122;53.538;49.366;2022-08-01T15:29:03;7.38;;;2.30;;
67195;SDS011;54122;53.538;49.366;2022-08-01T15:31:30;8.43;;;2.30;;
67195;SDS011;54122;53.538;49.366;2022-08-01T15:33:57;9.20;;;2.20;;
67195;SDS011;54122;53.538;49.366;2022-08-01T15:36:23;17.60;;;2.28;;
67195;SDS011;54122;53.538;49.366;2022-08-01T15:38:49;9.18;;;2.10;;
67195;SDS011;54122;53.538;49.366;2022-08-01T15:41:15;8.07;;;2.40;;
67195;SDS011;54122;53.538;49.366;2022-08-01T15:43:41;12.57;;;2.30;;
67195;SDS011;54122;53.538;49.366;2022-08-01T15:46:07;20.33;;;2.42;;
67195;SDS011;54122;53.538;49.366;2022-08-01T15:48:36;11.57;;;2.20;;
67195;SDS011;54122;53.538;49.366;2022-08-01T15:51:03;19.75;;;2.70;;
67195;SDS011;54122;53.538;49.366;2022-08-01T15:53:29;14.35;;;2.22;;
67195;SDS011;54122;53.538;49.366;2022-08-01T15:55:55;6.30;;;2.00;;
67195;SDS011;54122;53.538;49.366;2022-08-01T15:58:21;14.48;;;2.20;;
67195;SDS011;54122;53.538;49.366;2022-08-01T16:00:47;9.68;;;1.90;;
67195;SDS011;54122;53.538;49.366;2022-08-01T16:03:14;11.60;;;1.92;;
67195;SDS011;54122;53.538;49.366;2022-08-01T16:05:40;11.23;;;2.17;;
67195;SDS011;54122;53.538;49.366;2022-08-01T16:08:11;9.00;;;2.28;;
67195;SDS011;54122;53.538;49.366;2022-08-01T16:10:38;10.10;;;2.20;;
67195;SDS011;54122;53.538;49.366;2022-08-01T16:13:04;9.50;;;2.30;;
67195;SDS011;54122;53.538;49.366;2022-08-01T16:15:30;14.93;;;2.45;;
67195;SDS011;54122;53.538;49.366;2022-08-01T16:17:56;12.45;;;2.33;;
67195;SDS011;54122;53.538;49.366;2022-08-01T16:20:22;8.35;;;2.53;;
67195;SDS011;54122;53.538;49.366;2022-08-01T16:22:49;8.30;;;2.60;;
67195;SDS011;54122;53.538;49.366;2022-08-01T16:25:15;11.43;;;2.58;;
67195;SDS011;54122;53.538;49.366;2022-08-01T16:27:42;9.57;;;2.50;;
67195;SDS011;54122;53.538;49.366;2022-08-01T16:30:08;11.82;;;2.40;;
67195;SDS011;54122;53.538;49.366;2022-08-01T16:32:35;8.25;;;2.55;;
67195;SDS011;54122;53.538;49.366;2022-08-01T16:35:01;12.10;;;3.10;;